首页
METAR-TAF:

METAR-TAF

机场 :

贝娜齐尔·布托国际机场

伊斯兰堡, 巴基斯坦

纬度: 33-37N, 经度: 073-06E, 海拔: 507米

当前天气观测

该预报发布于27分钟前的07:30 UTC
风速10节,风向西北
温度 35°C
湿度 20%
气压 1011 hPa
能见度10公里或以上
少量云层高于4000英尺

METAR: OPRN 220730Z 31010KT 9999 FEW040 35/09 Q1011 NOSIG RMK A2986

时间: 12:57 (07:57 UTC)

预报

该预报发布于4小时和27分钟前的03:30 UTC
预报有效从22日的 06点(UTC)到 23日的 12点(UTC)
风速15节,风向西南
能見度: 7000
散云层高于4000英尺
多云层高于10000英尺
短暂存在
从 22日的 09点(UTC)到 22日的 14点(UTC)
风速15节,风向东南
能见度10公里或以上
少量云层高于4000英尺
散云层高于10000英尺
短暂存在
从 22日的 21点(UTC)到 23日的 01点(UTC)
风速15节,风向东南
能見度: 3000
少量云层高于3000英尺, 塔状积云.
散云层高于4000英尺
附近有雷暴

TAF: OPRN 220330Z 2206/2312 23015KT 7000 SCT040 BKN100 TEMPO 2209/2214 13015KT 9999 FEW040 SCT100 TEMPO 2221/2301 13015KT 3000 VCTS FEW030TCU SCT040

超过4000个机场的气象观测和天气预报(METAR&TAF报告)。

可查询的气象台以黄色和红色小点在地图上表示。

将鼠标移到小点上方,可查看气象台名称。

然后点击查看天气观测和预报。

如需切换地图:点击带黑十字的绿色按钮放大地图;点击带横线的绿色按钮缩小地图;或者点击绿色箭头查看邻近地区的地图。


METAR-TAF: